sensor_id;sensor_type;location;lat;lon;timestamp;pressure;altitude;pressure_sealevel;temperature;humidity
56330;BME280;42236;48.058;10.632;2022-12-29T00:01:08;94479.63;;;2.60;80.03
56330;BME280;42236;48.058;10.632;2022-12-29T00:03:54;94470.38;;;2.57;80.12
56330;BME280;42236;48.058;10.632;2022-12-29T00:06:40;94476.28;;;2.54;80.08
56330;BME280;42236;48.058;10.632;2022-12-29T00:09:26;94476.06;;;2.50;80.21
56330;BME280;42236;48.058;10.632;2022-12-29T00:12:11;94475.06;;;2.46;80.08
56330;BME280;42236;48.058;10.632;2022-12-29T00:14:57;94477.25;;;2.44;80.44
56330;BME280;42236;48.058;10.632;2022-12-29T00:18:01;94469.31;;;2.39;80.32
56330;BME280;42236;48.058;10.632;2022-12-29T00:20:47;94461.06;;;2.41;80.55
56330;BME280;42236;48.058;10.632;2022-12-29T00:23:51;94457.59;;;2.40;80.43
56330;BME280;42236;48.058;10.632;2022-12-29T00:30:14;94460.28;;;2.40;80.23
56330;BME280;42236;48.058;10.632;2022-12-29T00:33:21;94461.84;;;2.41;80.21
56330;BME280;42236;48.058;10.632;2022-12-29T00:36:31;94452.19;;;2.45;80.22
56330;BME280;42236;48.058;10.632;2022-12-29T00:39:18;94446.78;;;2.50;80.15
56330;BME280;42236;48.058;10.632;2022-12-29T00:42:22;94450.94;;;2.56;79.68
56330;BME280;42236;48.058;10.632;2022-12-29T00:45:26;94449.25;;;2.61;79.33
56330;BME280;42236;48.058;10.632;2022-12-29T00:48:12;94457.94;;;2.66;79.23
56330;BME280;42236;48.058;10.632;2022-12-29T00:50:57;94455.69;;;2.73;79.25
56330;BME280;42236;48.058;10.632;2022-12-29T00:53:43;94454.31;;;2.76;79.30
56330;BME280;42236;48.058;10.632;2022-12-29T00:56:29;94460.91;;;2.78;79.41
56330;BME280;42236;48.058;10.632;2022-12-29T00:59:15;94461.19;;;2.77;79.46
56330;BME280;42236;48.058;10.632;2022-12-29T01:02:00;94462.88;;;2.73;79.69
56330;BME280;42236;48.058;10.632;2022-12-29T01:04:46;94461.31;;;2.72;79.49
56330;BME280;42236;48.058;10.632;2022-12-29T01:07:32;94461.31;;;2.72;79.35
56330;BME280;42236;48.058;10.632;2022-12-29T01:10:17;94474.34;;;2.73;78.73
56330;BME280;42236;48.058;10.632;2022-12-29T01:13:03;94476.69;;;2.75;78.62
56330;BME280;42236;48.058;10.632;2022-12-29T01:15:53;94463.69;;;2.73;78.77
56330;BME280;42236;48.058;10.632;2022-12-29T01:18:39;94469.00;;;2.73;78.86
56330;BME280;42236;48.058;10.632;2022-12-29T01:21:25;94471.94;;;2.72;78.82
56330;BME280;42236;48.058;10.632;2022-12-29T01:24:10;94463.97;;;2.72;78.66
56330;BME280;42236;48.058;10.632;2022-12-29T01:26:56;94468.19;;;2.73;78.89
56330;BME280;42236;48.058;10.632;2022-12-29T01:29:41;94475.13;;;2.74;78.79
56330;BME280;42236;48.058;10.632;2022-12-29T01:32:27;94479.84;;;2.77;78.66
56330;BME280;42236;48.058;10.632;2022-12-29T01:35:13;94478.78;;;2.78;78.60
56330;BME280;42236;48.058;10.632;2022-12-29T01:37:58;94479.25;;;2.80;78.57
56330;BME280;42236;48.058;10.632;2022-12-29T01:40:45;94477.09;;;2.82;78.35
56330;BME280;42236;48.058;10.632;2022-12-29T01:43:53;94472.25;;;2.84;77.68
56330;BME280;42236;48.058;10.632;2022-12-29T01:46:41;94465.25;;;2.88;78.02
56330;BME280;42236;48.058;10.632;2022-12-29T01:49:31;94465.75;;;2.90;77.99
56330;BME280;42236;48.058;10.632;2022-12-29T01:52:16;94463.09;;;2.90;78.40
56330;BME280;42236;48.058;10.632;2022-12-29T01:55:04;94455.09;;;2.90;78.31
56330;BME280;42236;48.058;10.632;2022-12-29T01:57:52;94470.00;;;2.91;78.30
56330;BME280;42236;48.058;10.632;2022-12-29T02:00:38;94478.97;;;2.95;78.42
56330;BME280;42236;48.058;10.632;2022-12-29T02:03:25;94483.22;;;2.96;78.34
56330;BME280;42236;48.058;10.632;2022-12-29T02:06:16;94476.81;;;2.97;78.39
56330;BME280;42236;48.058;10.632;2022-12-29T02:09:03;94468.31;;;2.95;78.42
56330;BME280;42236;48.058;10.632;2022-12-29T02:11:49;94466.16;;;2.97;78.66
56330;BME280;42236;48.058;10.632;2022-12-29T02:14:35;94461.28;;;2.99;78.54
56330;BME280;42236;48.058;10.632;2022-12-29T02:17:36;94463.69;;;3.01;78.41
56330;BME280;42236;48.058;10.632;2022-12-29T02:20:50;94447.41;;;3.03;78.04
56330;BME280;42236;48.058;10.632;2022-12-29T02:24:18;94439.91;;;3.05;77.72
56330;BME280;42236;48.058;10.632;2022-12-29T02:33:26;94429.53;;;3.17;77.34
56330;BME280;42236;48.058;10.632;2022-12-29T02:36:26;94432.88;;;3.23;77.14
56330;BME280;42236;48.058;10.632;2022-12-29T02:39:28;94427.72;;;3.26;77.36
56330;BME280;42236;48.058;10.632;2022-12-29T02:42:33;94429.97;;;3.33;77.73
56330;BME280;42236;48.058;10.632;2022-12-29T02:45:34;94429.09;;;3.37;76.47
56330;BME280;42236;48.058;10.632;2022-12-29T02:48:32;94425.81;;;3.40;76.88
56330;BME280;42236;48.058;10.632;2022-12-29T02:51:27;94422.56;;;3.44;77.14
56330;BME280;42236;48.058;10.632;2022-12-29T02:54:17;94422.13;;;3.50;77.21
56330;BME280;42236;48.058;10.632;2022-12-29T03:00:15;94408.88;;;3.59;77.08
56330;BME280;42236;48.058;10.632;2022-12-29T03:06:07;94408.97;;;3.68;77.40
56330;BME280;42236;48.058;10.632;2022-12-29T03:09:12;94406.47;;;3.71;77.05
56330;BME280;42236;48.058;10.632;2022-12-29T03:15:10;94403.53;;;3.81;76.74
56330;BME280;42236;48.058;10.632;2022-12-29T03:18:28;94399.69;;;3.88;76.73
56330;BME280;42236;48.058;10.632;2022-12-29T03:21:35;94402.53;;;3.91;77.34
56330;BME280;42236;48.058;10.632;2022-12-29T03:24:42;94394.72;;;3.95;77.09
56330;BME280;42236;48.058;10.632;2022-12-29T03:27:33;94392.53;;;3.97;76.94
56330;BME280;42236;48.058;10.632;2022-12-29T03:30:20;94397.41;;;4.03;77.13
56330;BME280;42236;48.058;10.632;2022-12-29T03:33:12;94388.50;;;4.08;76.80
56330;BME280;42236;48.058;10.632;2022-12-29T03:36:05;94391.84;;;4.14;76.77
56330;BME280;42236;48.058;10.632;2022-12-29T03:38:59;94395.16;;;4.19;76.48
56330;BME280;42236;48.058;10.632;2022-12-29T03:41:49;94392.38;;;4.24;76.56
56330;BME280;42236;48.058;10.632;2022-12-29T03:44:38;94386.41;;;4.27;76.63
56330;BME280;42236;48.058;10.632;2022-12-29T03:47:26;94391.75;;;4.27;76.86
56330;BME280;42236;48.058;10.632;2022-12-29T03:50:13;94396.78;;;4.29;76.90
56330;BME280;42236;48.058;10.632;2022-12-29T03:52:58;94390.38;;;4.30;77.07
56330;BME280;42236;48.058;10.632;2022-12-29T03:55:47;94386.31;;;4.33;76.82
56330;BME280;42236;48.058;10.632;2022-12-29T03:58:32;94382.38;;;4.39;76.79
56330;BME280;42236;48.058;10.632;2022-12-29T04:01:18;94385.88;;;4.48;75.86
56330;BME280;42236;48.058;10.632;2022-12-29T04:04:04;94389.38;;;4.57;75.55
56330;BME280;42236;48.058;10.632;2022-12-29T04:06:50;94381.41;;;4.66;75.11
56330;BME280;42236;48.058;10.632;2022-12-29T04:09:35;94384.41;;;4.73;74.45
56330;BME280;42236;48.058;10.632;2022-12-29T04:12:21;94373.56;;;4.69;74.95
56330;BME280;42236;48.058;10.632;2022-12-29T04:15:08;94366.78;;;4.63;75.19
56330;BME280;42236;48.058;10.632;2022-12-29T04:17:53;94367.88;;;4.62;75.41
56330;BME280;42236;48.058;10.632;2022-12-29T04:20:39;94374.31;;;4.61;75.18
56330;BME280;42236;48.058;10.632;2022-12-29T04:23:44;94371.63;;;4.61;75.35
56330;BME280;42236;48.058;10.632;2022-12-29T04:26:29;94372.13;;;4.63;75.22
56330;BME280;42236;48.058;10.632;2022-12-29T04:29:15;94366.78;;;4.63;74.89
56330;BME280;42236;48.058;10.632;2022-12-29T04:32:01;94369.91;;;4.65;75.69
56330;BME280;42236;48.058;10.632;2022-12-29T04:34:47;94372.28;;;4.67;75.12
56330;BME280;42236;48.058;10.632;2022-12-29T04:37:38;94369.28;;;4.68;74.85
56330;BME280;42236;48.058;10.632;2022-12-29T04:40:23;94370.91;;;4.78;73.88
56330;BME280;42236;48.058;10.632;2022-12-29T04:43:10;94382.09;;;4.89;73.95
56330;BME280;42236;48.058;10.632;2022-12-29T04:45:56;94385.28;;;5.00;72.54
56330;BME280;42236;48.058;10.632;2022-12-29T04:48:41;94376.34;;;5.13;72.14
56330;BME280;42236;48.058;10.632;2022-12-29T04:51:27;94383.59;;;5.21;71.90
56330;BME280;42236;48.058;10.632;2022-12-29T04:54:13;94376.66;;;5.29;71.42
56330;BME280;42236;48.058;10.632;2022-12-29T04:56:59;94377.00;;;5.36;71.02
56330;BME280;42236;48.058;10.632;2022-12-29T04:59:44;94369.94;;;5.49;69.18
56330;BME280;42236;48.058;10.632;2022-12-29T05:02:30;94372.31;;;5.68;67.91
56330;BME280;42236;48.058;10.632;2022-12-29T05:05:16;94381.72;;;5.91;67.05
56330;BME280;42236;48.058;10.632;2022-12-29T05:08:02;94377.00;;;6.06;66.14
56330;BME280;42236;48.058;10.632;2022-12-29T05:10:50;94377.47;;;6.16;64.62
56330;BME280;42236;48.058;10.632;2022-12-29T05:13:36;94364.03;;;6.25;63.83
56330;BME280;42236;48.058;10.632;2022-12-29T05:16:22;94363.69;;;6.35;61.31
56330;BME280;42236;48.058;10.632;2022-12-29T05:19:07;94365.53;;;6.52;60.71
56330;BME280;42236;48.058;10.632;2022-12-29T05:21:53;94346.28;;;6.59;60.35
56330;BME280;42236;48.058;10.632;2022-12-29T05:24:39;94374.31;;;6.70;60.25
56330;BME280;42236;48.058;10.632;2022-12-29T05:27:25;94370.00;;;6.78;59.52
56330;BME280;42236;48.058;10.632;2022-12-29T05:30:11;94354.47;;;6.92;59.06
56330;BME280;42236;48.058;10.632;2022-12-29T05:32:57;94356.19;;;6.97;55.78
56330;BME280;42236;48.058;10.632;2022-12-29T05:35:43;94346.41;;;7.01;58.60
56330;BME280;42236;48.058;10.632;2022-12-29T05:38:28;94345.75;;;7.04;58.16
56330;BME280;42236;48.058;10.632;2022-12-29T05:41:14;94353.47;;;7.05;58.57
56330;BME280;42236;48.058;10.632;2022-12-29T05:44:00;94351.09;;;7.04;56.51
56330;BME280;42236;48.058;10.632;2022-12-29T05:46:46;94351.09;;;7.04;57.05
56330;BME280;42236;48.058;10.632;2022-12-29T05:49:32;94351.22;;;7.08;57.72
56330;BME280;42236;48.058;10.632;2022-12-29T05:52:23;94355.16;;;7.10;56.69
56330;BME280;42236;48.058;10.632;2022-12-29T05:55:09;94372.19;;;7.14;57.63
56330;BME280;42236;48.058;10.632;2022-12-29T05:57:56;94363.47;;;7.17;58.11
56330;BME280;42236;48.058;10.632;2022-12-29T06:00:41;94373.69;;;7.24;57.73
56330;BME280;42236;48.058;10.632;2022-12-29T06:03:27;94366.44;;;7.24;57.91
56330;BME280;42236;48.058;10.632;2022-12-29T06:06:13;94371.78;;;7.24;58.06
56330;BME280;42236;48.058;10.632;2022-12-29T06:08:59;94370.56;;;7.22;58.06
56330;BME280;42236;48.058;10.632;2022-12-29T06:11:44;94369.97;;;7.16;58.50
56330;BME280;42236;48.058;10.632;2022-12-29T06:14:30;94369.69;;;7.09;58.54
56330;BME280;42236;48.058;10.632;2022-12-29T06:17:16;94379.03;;;7.03;58.68
56330;BME280;42236;48.058;10.632;2022-12-29T06:20:02;94391.53;;;6.99;59.14
56330;BME280;42236;48.058;10.632;2022-12-29T06:22:48;94383.50;;;6.90;59.18
56330;BME280;42236;48.058;10.632;2022-12-29T06:25:34;94384.34;;;6.82;59.44
56330;BME280;42236;48.058;10.632;2022-12-29T06:28:21;94385.69;;;6.67;59.02
56330;BME280;42236;48.058;10.632;2022-12-29T06:31:09;94373.06;;;6.59;58.75
56330;BME280;42236;48.058;10.632;2022-12-29T06:33:55;94370.22;;;6.64;59.09
56330;BME280;42236;48.058;10.632;2022-12-29T06:36:41;94383.28;;;6.74;58.87
56330;BME280;42236;48.058;10.632;2022-12-29T06:39:27;94379.22;;;6.98;58.22
56330;BME280;42236;48.058;10.632;2022-12-29T06:42:12;94383.75;;;7.06;58.19
56330;BME280;42236;48.058;10.632;2022-12-29T06:44:58;94395.38;;;7.10;57.72
56330;BME280;42236;48.058;10.632;2022-12-29T06:47:46;94396.97;;;7.11;57.38
56330;BME280;42236;48.058;10.632;2022-12-29T06:50:31;94390.66;;;7.16;57.90
56330;BME280;42236;48.058;10.632;2022-12-29T06:53:17;94393.91;;;7.21;57.38
56330;BME280;42236;48.058;10.632;2022-12-29T06:56:03;94396.41;;;7.26;57.47
56330;BME280;42236;48.058;10.632;2022-12-29T06:58:49;94408.34;;;7.38;56.72
56330;BME280;42236;48.058;10.632;2022-12-29T07:01:35;94398.53;;;7.42;56.30
56330;BME280;42236;48.058;10.632;2022-12-29T07:04:21;94407.03;;;7.44;56.23
56330;BME280;42236;48.058;10.632;2022-12-29T07:07:07;94410.53;;;7.44;55.73
56330;BME280;42236;48.058;10.632;2022-12-29T07:09:53;94407.97;;;7.48;55.81
56330;BME280;42236;48.058;10.632;2022-12-29T07:12:38;94416.59;;;7.54;56.28
56330;BME280;42236;48.058;10.632;2022-12-29T07:15:24;94415.97;;;7.57;56.40
56330;BME280;42236;48.058;10.632;2022-12-29T07:18:10;94422.22;;;7.61;56.19
56330;BME280;42236;48.058;10.632;2022-12-29T07:20:55;94431.69;;;7.67;56.72
56330;BME280;42236;48.058;10.632;2022-12-29T07:23:41;94420.44;;;7.74;56.65
56330;BME280;42236;48.058;10.632;2022-12-29T07:26:27;94424.81;;;7.78;57.09
56330;BME280;42236;48.058;10.632;2022-12-29T07:29:13;94424.47;;;7.80;57.07
56330;BME280;42236;48.058;10.632;2022-12-29T07:31:59;94423.84;;;7.83;57.73
56330;BME280;42236;48.058;10.632;2022-12-29T07:34:44;94415.44;;;7.84;57.70
56330;BME280;42236;48.058;10.632;2022-12-29T07:37:33;94420.94;;;7.88;57.81
56330;BME280;42236;48.058;10.632;2022-12-29T07:40:19;94420.28;;;7.91;57.59
56330;BME280;42236;48.058;10.632;2022-12-29T07:43:05;94421.84;;;7.92;57.72
56330;BME280;42236;48.058;10.632;2022-12-29T07:45:50;94420.94;;;7.88;57.76
56330;BME280;42236;48.058;10.632;2022-12-29T07:48:36;94425.09;;;7.85;56.76
56330;BME280;42236;48.058;10.632;2022-12-29T07:51:22;94421.53;;;7.94;56.84
56330;BME280;42236;48.058;10.632;2022-12-29T07:54:08;94425.91;;;7.98;56.81
56330;BME280;42236;48.058;10.632;2022-12-29T07:56:54;94420.03;;;8.05;56.88
56330;BME280;42236;48.058;10.632;2022-12-29T07:59:40;94425.97;;;8.10;56.24
56330;BME280;42236;48.058;10.632;2022-12-29T08:02:25;94424.06;;;8.11;56.37
56330;BME280;42236;48.058;10.632;2022-12-29T08:05:15;94428.00;;;8.13;56.47
56330;BME280;42236;48.058;10.632;2022-12-29T08:08:01;94428.91;;;8.18;56.54
56330;BME280;42236;48.058;10.632;2022-12-29T08:10:46;94429.03;;;8.21;56.66
56330;BME280;42236;48.058;10.632;2022-12-29T08:13:32;94439.91;;;8.25;56.81
56330;BME280;42236;48.058;10.632;2022-12-29T08:16:18;94445.41;;;8.28;56.28
56330;BME280;42236;48.058;10.632;2022-12-29T08:19:03;94447.25;;;8.37;56.17
56330;BME280;42236;48.058;10.632;2022-12-29T08:21:50;94450.06;;;8.40;56.30
56330;BME280;42236;48.058;10.632;2022-12-29T08:24:36;94454.13;;;8.46;55.52
56330;BME280;42236;48.058;10.632;2022-12-29T08:27:22;94449.47;;;8.56;55.32
56330;BME280;42236;48.058;10.632;2022-12-29T08:30:08;94442.06;;;8.65;55.38
56330;BME280;42236;48.058;10.632;2022-12-29T08:32:54;94442.78;;;8.74;55.43
56330;BME280;42236;48.058;10.632;2022-12-29T08:35:39;94432.94;;;8.78;54.29
56330;BME280;42236;48.058;10.632;2022-12-29T08:38:26;94430.94;;;8.87;55.05
56330;BME280;42236;48.058;10.632;2022-12-29T08:41:12;94440.78;;;8.95;55.12
56330;BME280;42236;48.058;10.632;2022-12-29T08:43:58;94440.56;;;9.01;54.47
56330;BME280;42236;48.058;10.632;2022-12-29T08:46:43;94435.09;;;9.09;53.89
56330;BME280;42236;48.058;10.632;2022-12-29T08:49:29;94438.13;;;9.20;54.48
56330;BME280;42236;48.058;10.632;2022-12-29T08:52:15;94440.16;;;9.23;54.50
56330;BME280;42236;48.058;10.632;2022-12-29T08:55:00;94444.09;;;9.26;54.42
56330;BME280;42236;48.058;10.632;2022-12-29T08:57:46;94442.63;;;9.28;54.20
56330;BME280;42236;48.058;10.632;2022-12-29T09:00:32;94459.56;;;9.29;54.56
56330;BME280;42236;48.058;10.632;2022-12-29T09:03:17;94452.72;;;9.31;54.30
56330;BME280;42236;48.058;10.632;2022-12-29T09:06:03;94458.53;;;9.33;54.16
56330;BME280;42236;48.058;10.632;2022-12-29T09:08:49;94456.75;;;9.37;53.95
56330;BME280;42236;48.058;10.632;2022-12-29T09:11:34;94457.53;;;9.38;54.01
56330;BME280;42236;48.058;10.632;2022-12-29T09:14:23;94462.69;;;9.43;54.27
56330;BME280;42236;48.058;10.632;2022-12-29T09:17:09;94460.78;;;9.44;54.17
56330;BME280;42236;48.058;10.632;2022-12-29T09:20:16;94463.94;;;9.46;53.76
56330;BME280;42236;48.058;10.632;2022-12-29T09:23:03;94454.16;;;9.41;53.41
56330;BME280;42236;48.058;10.632;2022-12-29T09:25:49;94470.66;;;9.39;53.78
56330;BME280;42236;48.058;10.632;2022-12-29T09:28:34;94472.00;;;9.33;53.24
56330;BME280;42236;48.058;10.632;2022-12-29T09:31:20;94478.63;;;9.36;53.13
56330;BME280;42236;48.058;10.632;2022-12-29T09:34:05;94468.97;;;9.35;53.63
56330;BME280;42236;48.058;10.632;2022-12-29T09:36:51;94477.84;;;9.35;53.11
56330;BME280;42236;48.058;10.632;2022-12-29T09:39:37;94479.41;;;9.36;53.05
56330;BME280;42236;48.058;10.632;2022-12-29T09:42:38;94470.09;;;9.34;49.14
56330;BME280;42236;48.058;10.632;2022-12-29T09:45:36;94479.06;;;9.38;50.10
56330;BME280;42236;48.058;10.632;2022-12-29T09:48:31;94468.88;;;9.44;51.48
56330;BME280;42236;48.058;10.632;2022-12-29T09:51:22;94467.84;;;9.48;51.49
56330;BME280;42236;48.058;10.632;2022-12-29T09:57:40;94466.63;;;9.58;50.52
56330;BME280;42236;48.058;10.632;2022-12-29T10:00:50;94465.28;;;9.64;50.43
56330;BME280;42236;48.058;10.632;2022-12-29T10:03:47;94467.75;;;9.69;50.61
56330;BME280;42236;48.058;10.632;2022-12-29T10:10:14;94472.66;;;9.79;49.78
56330;BME280;42236;48.058;10.632;2022-12-29T10:13:22;94468.59;;;9.86;50.44
56330;BME280;42236;48.058;10.632;2022-12-29T10:16:38;94464.53;;;9.92;49.43
56330;BME280;42236;48.058;10.632;2022-12-29T10:22:38;94461.81;;;10.04;52.09
56330;BME280;42236;48.058;10.632;2022-12-29T10:25:32;94461.59;;;10.09;51.89
56330;BME280;42236;48.058;10.632;2022-12-29T10:28:21;94460.22;;;10.15;53.02
56330;BME280;42236;48.058;10.632;2022-12-29T10:31:17;94444.50;;;10.17;50.48
56330;BME280;42236;48.058;10.632;2022-12-29T10:34:31;94426.84;;;10.20;49.86
56330;BME280;42236;48.058;10.632;2022-12-29T10:37:43;94441.56;;;10.22;49.35
56330;BME280;42236;48.058;10.632;2022-12-29T10:40:43;94432.13;;;10.29;49.28
56330;BME280;42236;48.058;10.632;2022-12-29T10:44:12;94433.66;;;10.42;47.51
56330;BME280;42236;48.058;10.632;2022-12-29T10:47:06;94426.09;;;10.48;48.06
56330;BME280;42236;48.058;10.632;2022-12-29T10:49:58;94427.41;;;10.54;49.85
56330;BME280;42236;48.058;10.632;2022-12-29T10:53:19;94422.09;;;10.57;47.34
56330;BME280;42236;48.058;10.632;2022-12-29T10:56:24;94415.75;;;10.65;49.30
56330;BME280;42236;48.058;10.632;2022-12-29T10:59:21;94423.69;;;10.74;50.46
56330;BME280;42236;48.058;10.632;2022-12-29T11:05:06;94418.41;;;10.78;50.52
56330;BME280;42236;48.058;10.632;2022-12-29T11:08:04;94414.31;;;10.84;48.90
56330;BME280;42236;48.058;10.632;2022-12-29T11:11:04;94416.31;;;10.87;47.59
56330;BME280;42236;48.058;10.632;2022-12-29T11:14:02;94423.53;;;10.99;48.31
56330;BME280;42236;48.058;10.632;2022-12-29T11:17:02;94414.13;;;11.08;47.92
56330;BME280;42236;48.058;10.632;2022-12-29T11:19:48;94412.47;;;11.20;49.80
56330;BME280;42236;48.058;10.632;2022-12-29T11:22:34;94408.91;;;11.31;49.62
56330;BME280;42236;48.058;10.632;2022-12-29T11:25:25;94406.81;;;11.41;48.63
56330;BME280;42236;48.058;10.632;2022-12-29T11:28:15;94395.91;;;11.53;46.79
56330;BME280;42236;48.058;10.632;2022-12-29T11:31:03;94399.69;;;11.68;49.16
56330;BME280;42236;48.058;10.632;2022-12-29T11:33:55;94399.84;;;11.75;48.68
56330;BME280;42236;48.058;10.632;2022-12-29T11:36:41;94387.19;;;11.79;49.13
56330;BME280;42236;48.058;10.632;2022-12-29T11:39:33;94384.13;;;11.81;48.67
56330;BME280;42236;48.058;10.632;2022-12-29T11:45:24;94382.75;;;11.87;47.51
56330;BME280;42236;48.058;10.632;2022-12-29T11:48:17;94370.59;;;11.97;48.03
56330;BME280;42236;48.058;10.632;2022-12-29T11:51:04;94364.91;;;12.02;49.18
56330;BME280;42236;48.058;10.632;2022-12-29T11:53:59;94378.03;;;12.03;48.96
56330;BME280;42236;48.058;10.632;2022-12-29T11:56:48;94379.53;;;12.01;48.86
56330;BME280;42236;48.058;10.632;2022-12-29T12:03:15;94377.25;;;12.03;46.96
56330;BME280;42236;48.058;10.632;2022-12-29T12:06:03;94381.19;;;12.05;49.25
56330;BME280;42236;48.058;10.632;2022-12-29T12:12:50;94381.03;;;11.98;47.90
56330;BME280;42236;48.058;10.632;2022-12-29T12:15:41;94384.78;;;11.93;48.41
56330;BME280;42236;48.058;10.632;2022-12-29T12:18:47;94370.94;;;11.95;47.68
56330;BME280;42236;48.058;10.632;2022-12-29T12:21:42;94369.88;;;12.00;48.33
56330;BME280;42236;48.058;10.632;2022-12-29T12:27:23;94374.13;;;12.01;49.76
56330;BME280;42236;48.058;10.632;2022-12-29T12:30:15;94378.31;;;11.98;49.38
56330;BME280;42236;48.058;10.632;2022-12-29T12:33:35;94377.50;;;11.94;48.41
56330;BME280;42236;48.058;10.632;2022-12-29T12:36:33;94376.34;;;11.95;48.35
56330;BME280;42236;48.058;10.632;2022-12-29T12:39:27;94374.78;;;11.94;49.04
56330;BME280;42236;48.058;10.632;2022-12-29T12:55:11;94365.00;;;11.70;48.11
56330;BME280;42236;48.058;10.632;2022-12-29T12:58:12;94366.50;;;11.67;49.29
56330;BME280;42236;48.058;10.632;2022-12-29T13:28:38;94348.44;;;11.36;51.26
56330;BME280;42236;48.058;10.632;2022-12-29T13:32:02;94358.72;;;11.30;51.55
56330;BME280;42236;48.058;10.632;2022-12-29T13:35:09;94350.22;;;11.28;52.26
56330;BME280;42236;48.058;10.632;2022-12-29T13:38:11;94357.78;;;11.23;51.71
56330;BME280;42236;48.058;10.632;2022-12-29T13:41:30;94360.47;;;11.23;51.22
56330;BME280;42236;48.058;10.632;2022-12-29T13:44:28;94366.59;;;11.20;51.47
56330;BME280;42236;48.058;10.632;2022-12-29T13:50:22;94349.44;;;11.12;51.56
56330;BME280;42236;48.058;10.632;2022-12-29T14:01:56;94351.09;;;11.01;52.80
56330;BME280;42236;48.058;10.632;2022-12-29T14:05:02;94351.31;;;10.92;52.00
56330;BME280;42236;48.058;10.632;2022-12-29T14:07:57;94348.06;;;10.86;51.82
56330;BME280;42236;48.058;10.632;2022-12-29T14:10:53;94356.53;;;10.85;51.70
56330;BME280;42236;48.058;10.632;2022-12-29T14:13:45;94352.16;;;10.80;52.65
56330;BME280;42236;48.058;10.632;2022-12-29T14:16:34;94359.81;;;10.78;52.59
56330;BME280;42236;48.058;10.632;2022-12-29T14:19:30;94364.44;;;10.78;52.81
56330;BME280;42236;48.058;10.632;2022-12-29T14:22:26;94358.94;;;10.74;53.13
56330;BME280;42236;48.058;10.632;2022-12-29T14:28:41;94365.38;;;10.70;53.47
56330;BME280;42236;48.058;10.632;2022-12-29T14:34:27;94376.53;;;10.68;53.33
56330;BME280;42236;48.058;10.632;2022-12-29T14:37:32;94368.66;;;10.63;52.58
56330;BME280;42236;48.058;10.632;2022-12-29T14:40:24;94376.25;;;10.57;53.70
56330;BME280;42236;48.058;10.632;2022-12-29T14:43:13;94369.97;;;10.53;54.43
56330;BME280;42236;48.058;10.632;2022-12-29T14:46:01;94375.19;;;10.46;54.56
56330;BME280;42236;48.058;10.632;2022-12-29T14:48:47;94372.47;;;10.46;55.16
56330;BME280;42236;48.058;10.632;2022-12-29T14:51:40;94370.94;;;10.45;55.16
56330;BME280;42236;48.058;10.632;2022-12-29T14:57:43;94362.31;;;10.39;54.78
56330;BME280;42236;48.058;10.632;2022-12-29T15:00:33;94358.81;;;10.39;55.51
56330;BME280;42236;48.058;10.632;2022-12-29T15:03:30;94361.88;;;10.37;55.59
56330;BME280;42236;48.058;10.632;2022-12-29T15:06:18;94359.50;;;10.36;55.98
56330;BME280;42236;48.058;10.632;2022-12-29T15:09:20;94360.22;;;10.33;55.47
56330;BME280;42236;48.058;10.632;2022-12-29T15:15:02;94374.38;;;10.30;56.20
56330;BME280;42236;48.058;10.632;2022-12-29T15:18:26;94373.56;;;10.29;55.87
56330;BME280;42236;48.058;10.632;2022-12-29T15:21:14;94374.84;;;10.32;56.37
56330;BME280;42236;48.058;10.632;2022-12-29T15:24:00;94379.41;;;10.31;56.34
56330;BME280;42236;48.058;10.632;2022-12-29T15:26:50;94378.63;;;10.31;56.62
56330;BME280;42236;48.058;10.632;2022-12-29T15:29:42;94373.91;;;10.28;56.97
56330;BME280;42236;48.058;10.632;2022-12-29T15:32:40;94376.16;;;10.25;56.26
56330;BME280;42236;48.058;10.632;2022-12-29T15:35:50;94382.25;;;10.22;56.89
56330;BME280;42236;48.058;10.632;2022-12-29T15:38:36;94386.84;;;10.22;57.53
56330;BME280;42236;48.058;10.632;2022-12-29T15:41:50;94371.81;;;10.21;57.47
56330;BME280;42236;48.058;10.632;2022-12-29T15:44:45;94371.34;;;10.19;58.13
56330;BME280;42236;48.058;10.632;2022-12-29T15:47:34;94375.53;;;10.16;58.28
56330;BME280;42236;48.058;10.632;2022-12-29T15:50:29;94375.78;;;10.11;58.51
56330;BME280;42236;48.058;10.632;2022-12-29T15:53:23;94376.13;;;10.10;59.20
56330;BME280;42236;48.058;10.632;2022-12-29T15:56:13;94387.69;;;10.10;59.36
56330;BME280;42236;48.058;10.632;2022-12-29T15:59:00;94381.41;;;10.06;59.73
56330;BME280;42236;48.058;10.632;2022-12-29T16:01:46;94389.50;;;10.06;60.39
56330;BME280;42236;48.058;10.632;2022-12-29T16:04:32;94390.19;;;10.03;60.84
56330;BME280;42236;48.058;10.632;2022-12-29T16:07:38;94401.63;;;10.00;61.45
56330;BME280;42236;48.058;10.632;2022-12-29T16:10:36;94392.69;;;9.96;62.36
56330;BME280;42236;48.058;10.632;2022-12-29T16:13:34;94398.22;;;9.87;64.51
56330;BME280;42236;48.058;10.632;2022-12-29T16:16:44;94387.22;;;9.80;64.47
56330;BME280;42236;48.058;10.632;2022-12-29T16:19:39;94395.47;;;9.71;67.86
56330;BME280;42236;48.058;10.632;2022-12-29T16:25:23;94404.22;;;9.56;67.12
56330;BME280;42236;48.058;10.632;2022-12-29T16:28:20;94394.22;;;9.56;67.29
56330;BME280;42236;48.058;10.632;2022-12-29T16:31:17;94400.75;;;9.55;66.70
56330;BME280;42236;48.058;10.632;2022-12-29T16:34:23;94405.69;;;9.53;67.82
56330;BME280;42236;48.058;10.632;2022-12-29T16:37:31;94394.81;;;9.50;66.88
56330;BME280;42236;48.058;10.632;2022-12-29T16:46:22;94406.84;;;9.40;66.89
56330;BME280;42236;48.058;10.632;2022-12-29T16:49:15;94396.63;;;9.33;66.56
56330;BME280;42236;48.058;10.632;2022-12-29T16:52:11;94404.13;;;9.28;65.85
56330;BME280;42236;48.058;10.632;2022-12-29T16:54:59;94409.19;;;9.29;66.06
56330;BME280;42236;48.058;10.632;2022-12-29T16:57:51;94406.41;;;9.26;65.71
56330;BME280;42236;48.058;10.632;2022-12-29T17:00:38;94394.63;;;9.30;65.32
56330;BME280;42236;48.058;10.632;2022-12-29T17:03:33;94399.31;;;9.33;64.55